createdAt,value
2022-08-11T00:00:15.756Z,23.17
2022-08-11T00:02:53.352Z,23.00
2022-08-11T00:05:23.468Z,23.04
2022-08-11T00:07:55.775Z,22.92
2022-08-11T00:10:27.772Z,22.83
2022-08-11T00:13:00.440Z,22.83
2022-08-11T00:15:42.379Z,22.69
2022-08-11T00:18:14.365Z,22.77
2022-08-11T00:20:46.180Z,22.66
2022-08-11T00:23:20.846Z,22.66
2022-08-11T00:25:54.331Z,22.77
2022-08-11T00:28:32.774Z,22.66
2022-08-11T00:31:10.431Z,22.66
2022-08-11T00:33:46.078Z,22.65
2022-08-11T00:36:22.002Z,22.59
2022-08-11T00:38:52.296Z,22.52
2022-08-11T00:41:59.304Z,22.62
2022-08-11T00:44:34.709Z,22.57
2022-08-11T00:47:13.423Z,22.53
2022-08-11T00:50:20.546Z,22.53
2022-08-11T00:53:26.199Z,22.35
2022-08-11T00:56:14.929Z,22.37
2022-08-11T00:58:48.282Z,22.37
2022-08-11T01:01:31.323Z,22.49
2022-08-11T01:04:23.583Z,22.28
2022-08-11T01:06:58.967Z,22.29
2022-08-11T01:09:43.515Z,22.37
2022-08-11T01:12:16.450Z,22.44
2022-08-11T01:15:01.021Z,22.31
2022-08-11T01:17:57.340Z,22.12
2022-08-11T01:20:49.398Z,22.22
2022-08-11T01:23:34.799Z,22.13
2022-08-11T01:26:37.894Z,21.99
2022-08-11T01:29:29.739Z,21.97
2022-08-11T01:32:21.987Z,21.98
2022-08-11T01:35:06.620Z,21.93
2022-08-11T01:38:12.477Z,21.86
2022-08-11T01:41:10.750Z,21.92
2022-08-11T01:44:23.628Z,21.70
2022-08-11T01:46:59.255Z,21.70
2022-08-11T01:50:08.447Z,21.76
2022-08-11T01:52:33.488Z,21.54
2022-08-11T01:55:06.701Z,21.66
2022-08-11T01:57:45.181Z,21.55
2022-08-11T02:00:20.560Z,21.59
2022-08-11T02:02:58.780Z,21.53
2022-08-11T02:05:51.817Z,21.53
2022-08-11T02:08:41.960Z,21.62
2022-08-11T02:11:30.997Z,21.48
2022-08-11T02:14:26.896Z,21.49
2022-08-11T02:17:21.888Z,21.36
2022-08-11T02:20:36.350Z,21.30
2022-08-11T02:24:06.973Z,21.30
2022-08-11T02:26:08.434Z,21.30
2022-08-11T02:29:04.585Z,21.23
2022-08-11T02:32:25.881Z,21.19
2022-08-11T02:34:39.223Z,21.32
2022-08-11T02:37:29.875Z,21.13
2022-08-11T02:40:03.143Z,21.24
2022-08-11T02:42:51.703Z,20.93
2022-08-11T02:45:46.186Z,20.93
2022-08-11T02:48:52.844Z,21.05
2022-08-11T02:51:41.481Z,21.03
2022-08-11T02:54:32.712Z,21.06
2022-08-11T02:57:14.775Z,21.05
2022-08-11T02:59:53.769Z,20.88
2022-08-11T03:02:34.913Z,20.88
2022-08-11T03:05:15.011Z,20.87
2022-08-11T03:08:04.286Z,20.87
2022-08-11T03:10:50.717Z,20.82
2022-08-11T03:13:44.154Z,20.83
2022-08-11T03:16:46.326Z,20.83
2022-08-11T03:19:28.142Z,20.85
2022-08-11T03:22:15.555Z,20.84
2022-08-11T03:24:57.001Z,20.81
2022-08-11T03:27:47.222Z,20.93
2022-08-11T03:30:22.596Z,20.80
2022-08-11T03:33:29.539Z,20.59
2022-08-11T03:36:54.525Z,20.70
2022-08-11T03:39:09.628Z,20.62
2022-08-11T03:42:04.433Z,20.71
2022-08-11T03:44:35.581Z,20.71
2022-08-11T03:47:10.969Z,20.77
2022-08-11T03:50:01.930Z,20.54
2022-08-11T03:52:52.083Z,20.59
2022-08-11T03:55:59.382Z,20.59
2022-08-11T03:58:46.834Z,20.55
2022-08-11T04:01:40.967Z,20.62
2022-08-11T04:04:32.498Z,20.50
2022-08-11T04:07:17.570Z,20.26
2022-08-11T04:10:15.132Z,20.23
2022-08-11T04:13:20.644Z,20.37
2022-08-11T04:16:12.840Z,20.41
2022-08-11T04:19:02.238Z,20.27
2022-08-11T04:21:57.011Z,20.20
2022-08-11T04:24:41.647Z,20.12
2022-08-11T04:27:20.041Z,20.18
2022-08-11T04:30:13.706Z,20.24
2022-08-11T04:33:02.462Z,20.24
2022-08-11T04:35:54.339Z,20.18
2022-08-11T04:38:27.064Z,20.03
2022-08-11T04:41:16.300Z,20.10
2022-08-11T04:44:06.866Z,20.06
2022-08-11T04:47:12.524Z,20.24
2022-08-11T04:50:14.579Z,20.05
2022-08-11T04:53:39.434Z,20.21
2022-08-11T04:56:29.663Z,20.15
2022-08-11T04:59:19.935Z,20.14
2022-08-11T05:02:26.953Z,20.17
2022-08-11T05:05:34.076Z,20.25
2022-08-11T05:08:38.431Z,20.16
2022-08-11T05:11:30.325Z,20.21
2022-08-11T05:14:23.638Z,20.30
2022-08-11T05:17:13.867Z,20.32
2022-08-11T05:22:55.335Z,20.54
2022-08-11T05:26:43.643Z,20.44
2022-08-11T05:28:49.743Z,20.53
2022-08-11T05:31:40.062Z,20.43
2022-08-11T05:34:31.551Z,20.44
2022-08-11T05:37:25.176Z,20.57
2022-08-11T05:40:06.025Z,20.80
2022-08-11T05:42:55.470Z,20.91
2022-08-11T05:46:02.329Z,21.31
2022-08-11T05:48:33.844Z,21.31
2022-08-11T05:51:29.975Z,21.41
2022-08-11T05:54:27.931Z,21.44
2022-08-11T05:56:57.756Z,21.52
2022-08-11T05:59:29.580Z,21.56
2022-08-11T06:02:04.400Z,21.55
2022-08-11T06:04:35.174Z,21.42
2022-08-11T06:07:10.499Z,21.59
2022-08-11T06:09:52.060Z,21.68
2022-08-11T06:12:31.393Z,21.71
2022-08-11T06:15:06.954Z,21.77
2022-08-11T06:17:39.454Z,21.79
2022-08-11T06:20:13.135Z,21.99
2022-08-11T06:22:52.922Z,21.95
2022-08-11T06:25:22.405Z,22.16
2022-08-11T06:27:56.283Z,22.48
2022-08-11T06:30:43.517Z,22.77
2022-08-11T06:33:22.191Z,22.99
2022-08-11T06:36:12.631Z,23.46
2022-08-11T06:39:00.403Z,23.53
2022-08-11T06:41:47.939Z,23.93
2022-08-11T06:44:20.779Z,24.07
2022-08-11T06:46:54.620Z,24.07
2022-08-11T06:49:44.878Z,24.28
2022-08-11T06:52:34.138Z,24.14
2022-08-11T06:54:57.735Z,24.56
2022-08-11T06:57:45.440Z,24.48
2022-08-11T07:00:30.055Z,24.80
2022-08-11T07:03:09.838Z,25.20
2022-08-11T07:05:48.654Z,25.24
2022-08-11T07:09:04.887Z,25.75
2022-08-11T07:11:50.899Z,25.84
2022-08-11T07:14:41.525Z,26.44
2022-08-11T07:17:14.324Z,26.44
2022-08-11T07:20:03.811Z,26.94
2022-08-11T07:22:53.973Z,26.65
2022-08-11T07:25:43.413Z,26.78
2022-08-11T07:28:35.367Z,26.95
2022-08-11T07:31:08.221Z,27.23
2022-08-11T07:34:08.109Z,27.57
2022-08-11T07:36:23.610Z,27.81
2022-08-11T07:38:56.713Z,27.75
2022-08-11T07:41:30.363Z,28.02
2022-08-11T07:44:02.914Z,27.81
2022-08-11T07:46:49.903Z,28.15
2022-08-11T07:49:37.565Z,28.21
2022-08-11T07:52:26.691Z,28.21
2022-08-11T07:54:59.602Z,28.61
2022-08-11T07:58:14.766Z,29.07
2022-08-11T08:00:40.318Z,29.52
2022-08-11T08:03:28.555Z,29.71
2022-08-11T08:06:35.916Z,30.02
2022-08-11T08:09:05.959Z,29.50
2022-08-11T08:11:53.367Z,29.76
2022-08-11T08:14:41.319Z,30.10
2022-08-11T08:17:28.799Z,30.27
2022-08-11T08:19:58.907Z,30.56
2022-08-11T08:22:38.802Z,30.44
2022-08-11T08:25:01.546Z,30.24
2022-08-11T08:27:31.444Z,30.59
2022-08-11T08:30:20.428Z,30.65
2022-08-11T08:32:51.804Z,30.10
2022-08-11T08:35:21.845Z,30.10
2022-08-11T08:37:53.383Z,30.91
2022-08-11T08:40:23.308Z,30.96
2022-08-11T08:43:02.078Z,30.83
2022-08-11T08:45:34.897Z,31.16
2022-08-11T08:48:11.202Z,31.20
2022-08-11T08:51:04.586Z,31.62
2022-08-11T08:53:36.653Z,31.79
2022-08-11T08:56:10.600Z,31.92
2022-08-11T08:58:43.205Z,32.13
2022-08-11T09:01:14.944Z,31.95
2022-08-11T09:04:06.843Z,32.26
2022-08-11T09:06:17.635Z,32.26
2022-08-11T09:08:51.841Z,32.04
2022-08-11T09:11:38.843Z,32.10
2022-08-11T09:14:15.029Z,31.91
2022-08-11T09:16:44.213Z,31.96
2022-08-11T09:19:19.410Z,31.78
2022-08-11T09:22:09.909Z,32.27
2022-08-11T09:24:58.973Z,32.72
2022-08-11T09:27:29.270Z,32.87
2022-08-11T09:29:59.950Z,33.17
2022-08-11T09:32:31.430Z,32.96
2022-08-11T09:35:04.466Z,33.00
2022-08-11T09:37:54.365Z,33.24
2022-08-11T09:40:31.237Z,33.58
2022-08-11T09:43:22.280Z,33.82
2022-08-11T09:45:55.058Z,33.83
2022-08-11T09:48:27.132Z,33.51
2022-08-11T09:50:59.774Z,33.81
2022-08-11T09:53:40.670Z,33.62
2022-08-11T09:56:30.045Z,33.97
2022-08-11T09:59:00.248Z,33.90
2022-08-11T10:01:35.415Z,34.07
2022-08-11T10:04:09.163Z,34.39
2022-08-11T10:06:58.439Z,34.60
2022-08-11T10:09:31.158Z,34.55
2022-08-11T10:12:02.949Z,34.45
2022-08-11T10:14:51.142Z,34.49
2022-08-11T10:17:22.838Z,34.23
2022-08-11T10:20:04.953Z,34.29
2022-08-11T10:22:46.556Z,34.76
2022-08-11T10:25:34.911Z,34.45
2022-08-11T10:28:33.187Z,34.63
2022-08-11T10:30:58.500Z,34.55
2022-08-11T10:33:57.700Z,34.73
2022-08-11T10:36:21.153Z,34.43
2022-08-11T10:38:52.242Z,34.62
2022-08-11T10:42:02.864Z,35.20
2022-08-11T10:44:12.502Z,34.98
2022-08-11T10:47:00.097Z,34.91
2022-08-11T10:49:31.201Z,34.91
2022-08-11T10:52:19.605Z,34.91
2022-08-11T10:55:07.698Z,35.41
2022-08-11T10:58:04.620Z,35.20
2022-08-11T11:00:28.651Z,34.77
2022-08-11T11:03:23.113Z,34.77
2022-08-11T11:05:33.660Z,35.01
2022-08-11T11:08:12.075Z,34.83
2022-08-11T11:10:42.771Z,35.21
2022-08-11T11:13:29.457Z,35.07
2022-08-11T11:16:16.489Z,35.23
2022-08-11T11:19:00.602Z,35.42
2022-08-11T11:21:22.498Z,34.78
2022-08-11T11:24:14.571Z,34.99
2022-08-11T11:26:56.254Z,35.19
2022-08-11T11:29:43.905Z,35.11
2022-08-11T11:32:33.965Z,35.11
2022-08-11T11:35:12.398Z,35.46
2022-08-11T11:38:00.026Z,35.58
2022-08-11T11:40:30.610Z,35.45
2022-08-11T11:42:58.283Z,35.53
2022-08-11T11:45:28.372Z,35.53
2022-08-11T11:48:00.837Z,35.21
2022-08-11T11:50:36.704Z,35.76
2022-08-11T11:53:08.809Z,35.72
2022-08-11T11:55:39.012Z,36.20
2022-08-11T11:58:29.264Z,36.49
2022-08-11T12:01:20.425Z,35.51
2022-08-11T12:03:52.616Z,35.69
2022-08-11T12:06:25.313Z,36.00
2022-08-11T12:08:58.049Z,35.91
2022-08-11T12:11:47.741Z,35.79
2022-08-11T12:14:20.049Z,35.59
2022-08-11T12:16:50.083Z,36.10
2022-08-11T12:19:21.930Z,36.10
2022-08-11T12:22:10.849Z,36.61
2022-08-11T12:24:58.741Z,36.33
2022-08-11T12:27:30.947Z,36.52
2022-08-11T12:30:09.845Z,36.86
2022-08-11T12:32:41.512Z,36.77
2022-08-11T12:35:11.543Z,36.63
2022-08-11T12:37:44.374Z,36.52
2022-08-11T12:40:43.373Z,36.48
2022-08-11T12:43:38.067Z,37.05
2022-08-11T12:46:01.482Z,37.22
2022-08-11T12:49:02.084Z,37.12
2022-08-11T12:52:14.013Z,37.30
2022-08-11T12:54:24.144Z,37.14
2022-08-11T12:57:17.597Z,37.13
2022-08-11T13:00:07.656Z,37.17
2022-08-11T13:02:55.902Z,36.51
2022-08-11T13:05:25.612Z,36.71
2022-08-11T13:07:55.614Z,37.11
2022-08-11T13:10:42.642Z,36.83
2022-08-11T13:13:54.579Z,37.45
2022-08-11T13:15:46.672Z,37.23
2022-08-11T13:18:20.955Z,37.05
2022-08-11T13:20:54.163Z,37.16
2022-08-11T13:23:25.506Z,37.37
2022-08-11T13:25:56.616Z,36.84
2022-08-11T13:28:26.973Z,36.84
2022-08-11T13:31:11.921Z,36.57
2022-08-11T13:33:49.524Z,37.20
2022-08-11T13:36:23.847Z,36.95
2022-08-11T13:38:58.342Z,36.93
2022-08-11T13:41:39.255Z,37.38
2022-08-11T13:44:15.932Z,37.28
2022-08-11T13:46:45.710Z,37.83
2022-08-11T13:49:17.579Z,37.09
2022-08-11T13:51:47.685Z,37.29
2022-08-11T13:54:26.502Z,37.44
2022-08-11T13:56:59.622Z,37.48
2022-08-11T13:59:31.101Z,37.09
2022-08-11T14:02:27.999Z,36.80
2022-08-11T14:04:57.041Z,36.81
2022-08-11T14:07:32.003Z,36.87
2022-08-11T14:10:02.469Z,36.96
2022-08-11T14:12:52.619Z,36.98
2022-08-11T14:15:31.444Z,36.99
2022-08-11T14:18:10.361Z,37.17
2022-08-11T14:21:00.354Z,37.54
2022-08-11T14:23:35.968Z,37.90
2022-08-11T14:26:26.071Z,37.63
2022-08-11T14:29:13.078Z,37.18
2022-08-11T14:31:48.925Z,37.18
2022-08-11T14:34:21.568Z,37.66
2022-08-11T14:36:54.477Z,37.93
2022-08-11T14:39:27.264Z,37.13
2022-08-11T14:42:23.540Z,37.38
2022-08-11T14:45:14.124Z,37.59
2022-08-11T14:47:46.678Z,37.37
2022-08-11T14:50:23.469Z,37.43
2022-08-11T14:52:59.101Z,37.94
2022-08-11T14:55:52.286Z,37.52
2022-08-11T14:58:25.471Z,37.93
2022-08-11T15:00:58.433Z,37.55
2022-08-11T15:03:30.502Z,37.49
2022-08-11T15:06:02.555Z,37.64
2022-08-11T15:08:53.646Z,37.95
2022-08-11T15:11:48.338Z,37.95
2022-08-11T15:14:20.138Z,37.80
2022-08-11T15:17:08.229Z,38.18
2022-08-11T15:19:42.255Z,38.01
2022-08-11T15:22:29.542Z,37.43
2022-08-11T15:25:00.420Z,37.82
2022-08-11T15:27:50.719Z,37.88
2022-08-11T15:30:38.120Z,37.80
2022-08-11T15:33:27.702Z,37.56
2022-08-11T15:36:16.542Z,37.72
2022-08-11T15:38:55.298Z,37.53
2022-08-11T15:41:44.054Z,37.37
2022-08-11T15:45:00.923Z,37.66
2022-08-11T15:47:06.316Z,37.94
2022-08-11T15:50:11.925Z,37.39
2022-08-11T15:52:17.177Z,37.39
2022-08-11T15:54:48.971Z,37.27
2022-08-11T15:57:39.518Z,37.31
2022-08-11T16:00:27.151Z,37.28
2022-08-11T16:03:16.921Z,36.90
2022-08-11T16:05:53.010Z,36.99
2022-08-11T16:08:32.735Z,37.70
2022-08-11T16:10:58.567Z,37.12
2022-08-11T16:13:31.704Z,37.12
2022-08-11T16:16:15.607Z,37.11
2022-08-11T16:18:57.101Z,37.30
2022-08-11T16:21:34.604Z,37.50
2022-08-11T16:24:03.908Z,37.44
2022-08-11T16:27:09.295Z,36.96
2022-08-11T16:29:11.050Z,37.61
2022-08-11T16:31:42.933Z,37.51
2022-08-11T16:34:16.273Z,37.60
2022-08-11T16:37:03.818Z,36.94
2022-08-11T16:39:33.789Z,36.94
2022-08-11T16:43:00.151Z,37.14
2022-08-11T16:45:13.397Z,37.40
2022-08-11T16:48:02.132Z,37.29
2022-08-11T16:50:18.907Z,37.23
2022-08-11T16:52:48.423Z,37.07
2022-08-11T16:55:51.954Z,37.23
2022-08-11T16:58:07.501Z,37.23
2022-08-11T17:00:40.289Z,36.95
2022-08-11T17:03:28.932Z,36.90
2022-08-11T17:06:17.274Z,37.13
2022-08-11T17:09:12.348Z,37.18
2022-08-11T17:12:11.754Z,37.29
2022-08-11T17:14:54.141Z,37.31
2022-08-11T17:17:26.950Z,36.84
2022-08-11T17:20:42.046Z,36.99
2022-08-11T17:22:50.677Z,37.46
2022-08-11T17:25:21.668Z,37.01
2022-08-11T17:27:53.369Z,36.93
2022-08-11T17:30:29.591Z,37.38
2022-08-11T17:33:15.181Z,37.76
2022-08-11T17:35:45.095Z,37.36
2022-08-11T17:38:17.370Z,38.17
2022-08-11T17:41:07.759Z,38.52
2022-08-11T17:43:56.484Z,38.06
2022-08-11T17:46:45.884Z,38.36
2022-08-11T17:49:19.422Z,39.04
2022-08-11T17:52:09.147Z,39.10
2022-08-11T17:54:58.501Z,39.25
2022-08-11T17:57:47.919Z,35.85
2022-08-11T18:00:18.734Z,35.85
2022-08-11T18:03:07.477Z,35.24
2022-08-11T18:05:38.674Z,34.41
2022-08-11T18:08:31.283Z,34.27
2022-08-11T18:12:06.570Z,33.91
2022-08-11T18:14:10.470Z,33.69
2022-08-11T18:17:00.529Z,33.50
2022-08-11T18:19:47.021Z,33.14
2022-08-11T18:22:37.207Z,32.85
2022-08-11T18:25:34.735Z,32.90
2022-08-11T18:28:28.177Z,32.55
2022-08-11T18:31:18.499Z,32.55
2022-08-11T18:34:15.015Z,32.45
2022-08-11T18:37:27.240Z,32.46
2022-08-11T18:40:24.041Z,32.17
2022-08-11T18:43:14.210Z,32.25
2022-08-11T18:46:06.325Z,32.04
2022-08-11T18:48:59.974Z,31.93
2022-08-11T18:51:47.382Z,31.58
2022-08-11T18:54:37.061Z,31.51
2022-08-11T18:57:26.795Z,31.53
2022-08-11T19:00:16.601Z,31.28
2022-08-11T19:03:06.124Z,31.05
2022-08-11T19:06:32.421Z,30.98
2022-08-11T19:08:48.527Z,30.78
2022-08-11T19:11:42.511Z,30.63
2022-08-11T19:14:31.640Z,30.36
2022-08-11T19:17:44.746Z,30.23
2022-08-11T19:20:11.880Z,30.06
2022-08-11T19:22:59.813Z,29.82
2022-08-11T19:25:50.077Z,29.67
2022-08-11T19:28:38.406Z,29.62
2022-08-11T19:31:27.991Z,29.55
2022-08-11T19:34:17.349Z,29.35
2022-08-11T19:37:05.484Z,29.29
2022-08-11T19:39:54.363Z,29.23
2022-08-11T19:42:42.164Z,28.94
2022-08-11T19:45:30.338Z,28.89
2022-08-11T19:48:33.356Z,28.77
2022-08-11T19:51:07.398Z,28.59
2022-08-11T19:53:56.492Z,28.46
2022-08-11T19:56:44.935Z,28.51
2022-08-11T19:59:32.628Z,28.38
2022-08-11T20:02:19.973Z,28.26
2022-08-11T20:05:07.910Z,28.09
2022-08-11T20:07:56.160Z,28.16
2022-08-11T20:10:46.142Z,28.02
2022-08-11T20:13:35.589Z,27.98
2022-08-11T20:16:24.729Z,27.89
2022-08-11T20:19:13.574Z,27.88
2022-08-11T20:22:05.946Z,27.73
2022-08-11T20:24:51.089Z,27.66
2022-08-11T20:27:40.132Z,27.57
2022-08-11T20:30:29.527Z,27.51
2022-08-11T20:33:17.852Z,27.51
2022-08-11T20:36:08.841Z,27.42
2022-08-11T20:38:58.057Z,27.21
2022-08-11T20:41:58.371Z,27.21
2022-08-11T20:44:38.308Z,27.18
2022-08-11T20:47:27.664Z,27.08
2022-08-11T20:50:20.475Z,27.02
2022-08-11T20:53:10.267Z,26.93
2022-08-11T20:55:58.444Z,26.70
2022-08-11T20:59:13.869Z,26.65
2022-08-11T21:01:41.132Z,26.66
2022-08-11T21:04:28.176Z,26.53
2022-08-11T21:07:23.563Z,26.41
2022-08-11T21:10:09.909Z,26.36
2022-08-11T21:12:56.500Z,26.36
2022-08-11T21:16:01.738Z,26.25
2022-08-11T21:18:37.692Z,26.18
2022-08-11T21:21:28.806Z,26.13
2022-08-11T21:24:20.227Z,26.03
2022-08-11T21:27:16.346Z,25.95
2022-08-11T21:30:01.224Z,25.94
2022-08-11T21:32:50.011Z,25.95
2022-08-11T21:35:44.958Z,25.75
2022-08-11T21:38:30.225Z,25.91
2022-08-11T21:41:18.562Z,25.78
2022-08-11T21:44:10.727Z,25.69
2022-08-11T21:46:59.446Z,25.62
2022-08-11T21:49:48.899Z,25.60
2022-08-11T21:52:36.879Z,25.65
2022-08-11T21:55:27.085Z,25.59
2022-08-11T21:58:15.878Z,25.43
2022-08-11T22:01:03.850Z,25.42
2022-08-11T22:03:51.457Z,25.34
2022-08-11T22:06:39.842Z,25.44
2022-08-11T22:09:27.573Z,25.27
2022-08-11T22:12:34.538Z,25.22
2022-08-11T22:15:04.501Z,25.08
2022-08-11T22:17:55.976Z,25.17
2022-08-11T22:20:41.692Z,25.12
2022-08-11T22:23:35.808Z,25.00
2022-08-11T22:26:19.202Z,25.02
2022-08-11T22:29:07.916Z,25.15
2022-08-11T22:31:57.486Z,25.06
2022-08-11T22:34:53.132Z,25.03
2022-08-11T22:37:36.100Z,25.00
2022-08-11T22:40:24.770Z,24.87
2022-08-11T22:43:12.524Z,24.89
2022-08-11T22:46:00.402Z,24.89
2022-08-11T22:51:57.365Z,24.75
2022-08-11T22:54:45.908Z,24.79
2022-08-11T22:57:33.993Z,24.73
2022-08-11T23:00:22.830Z,24.59
2022-08-11T23:03:12.681Z,24.62
2022-08-11T23:06:02.685Z,24.67
2022-08-11T23:08:52.238Z,24.61
2022-08-11T23:12:07.229Z,24.55
2022-08-11T23:14:33.043Z,24.35
2022-08-11T23:17:21.012Z,24.48
2022-08-11T23:20:31.067Z,24.45
2022-08-11T23:22:58.601Z,24.31
2022-08-11T23:25:47.128Z,24.34
2022-08-11T23:28:36.094Z,24.43
2022-08-11T23:31:27.627Z,24.31
2022-08-11T23:34:41.793Z,24.08
2022-08-11T23:37:09.723Z,24.15
2022-08-11T23:39:57.327Z,24.20
2022-08-11T23:42:46.305Z,24.26
2022-08-11T23:45:34.641Z,24.19
2022-08-11T23:48:23.037Z,24.27
2022-08-11T23:51:10.865Z,24.00
2022-08-11T23:54:00.398Z,24.09
2022-08-11T23:56:50.068Z,24.24
2022-08-11T23:59:37.784Z,24.15
